createdAt,value
2022-08-01T00:01:34.237Z,20.01
2022-08-01T00:04:02.814Z,20.00
2022-08-01T00:06:31.333Z,20.01
2022-08-01T00:08:59.725Z,20.01
2022-08-01T00:11:28.272Z,20.01
2022-08-01T00:13:56.695Z,20.00
2022-08-01T00:16:26.416Z,20.00
2022-08-01T00:18:55.978Z,20.00
2022-08-01T00:21:24.360Z,19.98
2022-08-01T00:23:52.761Z,19.95
2022-08-01T00:26:21.230Z,19.93
2022-08-01T00:28:49.563Z,19.92
2022-08-01T00:31:17.918Z,19.90
2022-08-01T00:33:47.659Z,19.87
2022-08-01T00:36:16.014Z,19.87
2022-08-01T00:38:44.467Z,19.83
2022-08-01T00:41:12.917Z,19.82
2022-08-01T00:43:41.338Z,19.81
2022-08-01T00:46:09.730Z,19.81
2022-08-01T00:48:38.103Z,19.79
2022-08-01T00:51:09.342Z,19.78
2022-08-01T00:53:51.129Z,19.76
2022-08-01T00:56:21.330Z,19.75
2022-08-01T00:58:49.806Z,19.75
2022-08-01T01:01:21.462Z,19.75
2022-08-01T01:03:59.711Z,19.75
2022-08-01T01:06:43.781Z,19.74
2022-08-01T01:09:27.166Z,19.74
2022-08-01T01:12:04.970Z,19.73
2022-08-01T01:14:38.818Z,19.72
2022-08-01T01:17:09.833Z,19.73
2022-08-01T01:19:43.991Z,19.72
2022-08-01T01:22:27.908Z,19.72
2022-08-01T01:25:25.573Z,19.72
2022-08-01T01:28:04.242Z,19.71
2022-08-01T01:30:34.986Z,19.71
2022-08-01T01:33:05.577Z,19.71
2022-08-01T01:35:37.511Z,19.71
2022-08-01T01:38:09.909Z,19.70
2022-08-01T01:40:40.010Z,19.70
2022-08-01T01:43:12.379Z,19.69
2022-08-01T01:45:43.031Z,19.67
2022-08-01T01:48:12.513Z,19.68
2022-08-01T01:50:42.299Z,19.69
2022-08-01T01:53:15.409Z,19.68
2022-08-01T01:55:49.110Z,19.67
2022-08-01T01:58:19.186Z,19.64
2022-08-01T02:00:51.137Z,19.63
2022-08-01T02:03:21.718Z,19.62
2022-08-01T02:05:53.166Z,19.61
2022-08-01T02:08:24.204Z,19.60
2022-08-01T02:11:12.246Z,19.61
2022-08-01T02:13:42.554Z,19.61
2022-08-01T02:16:13.230Z,19.61
2022-08-01T02:18:42.879Z,19.60
2022-08-01T02:21:15.909Z,19.60
2022-08-01T02:23:45.570Z,19.59
2022-08-01T02:26:17.186Z,19.59
2022-08-01T02:28:49.614Z,19.59
2022-08-01T02:31:23.519Z,19.58
2022-08-01T02:33:58.963Z,19.58
2022-08-01T02:36:31.948Z,19.58
2022-08-01T02:39:03.704Z,19.57
2022-08-01T02:41:35.461Z,19.57
2022-08-01T02:44:07.228Z,19.57
2022-08-01T02:46:40.516Z,19.58
2022-08-01T02:49:11.290Z,19.57
2022-08-01T02:51:41.879Z,19.56
2022-08-01T02:54:12.825Z,19.56
2022-08-01T02:56:43.663Z,19.56
2022-08-01T02:59:16.069Z,19.55
2022-08-01T03:01:50.108Z,19.54
2022-08-01T03:04:20.180Z,19.54
2022-08-01T03:06:50.185Z,19.54
2022-08-01T03:09:20.310Z,19.54
2022-08-01T03:11:50.109Z,19.55
2022-08-01T03:14:19.297Z,19.54
2022-08-01T03:16:49.992Z,19.53
2022-08-01T03:19:22.510Z,19.51
2022-08-01T03:21:52.703Z,19.52
2022-08-01T03:24:23.612Z,19.52
2022-08-01T03:26:54.584Z,19.51
2022-08-01T03:29:27.336Z,19.52
2022-08-01T03:31:57.889Z,19.53
2022-08-01T03:34:26.583Z,19.52
2022-08-01T03:37:01.602Z,19.54
2022-08-01T03:39:33.524Z,19.54
2022-08-01T03:42:08.098Z,19.54
2022-08-01T03:44:39.939Z,19.54
2022-08-01T03:47:11.486Z,19.54
2022-08-01T03:49:43.550Z,19.54
2022-08-01T03:52:13.369Z,19.54
2022-08-01T03:54:46.270Z,19.53
2022-08-01T03:57:35.473Z,19.51
2022-08-01T04:00:08.577Z,19.52
2022-08-01T04:02:43.675Z,19.51
2022-08-01T04:05:12.767Z,19.51
2022-08-01T04:07:43.907Z,19.50
2022-08-01T04:10:13.026Z,19.50
2022-08-01T04:12:41.478Z,19.50
2022-08-01T04:15:10.564Z,19.50
2022-08-01T04:17:38.927Z,19.50
2022-08-01T04:20:09.890Z,19.49
2022-08-01T04:22:39.754Z,19.50
2022-08-01T04:25:14.361Z,19.49
2022-08-01T04:27:51.554Z,19.50
2022-08-01T04:30:25.438Z,19.51
2022-08-01T04:32:56.394Z,19.51
2022-08-01T04:36:03.945Z,19.51
2022-08-01T04:38:28.171Z,19.52
2022-08-01T04:40:58.755Z,19.53
2022-08-01T04:43:27.242Z,19.54
2022-08-01T04:45:57.088Z,19.53
2022-08-01T04:48:26.771Z,19.53
2022-08-01T04:50:56.515Z,19.55
2022-08-01T04:53:24.866Z,19.55
2022-08-01T04:55:53.230Z,19.55
2022-08-01T04:58:21.612Z,19.57
2022-08-01T05:00:50.100Z,19.56
2022-08-01T05:03:18.617Z,19.57
2022-08-01T05:05:46.966Z,19.57
2022-08-01T05:08:17.287Z,19.58
2022-08-01T05:10:45.883Z,19.58
2022-08-01T05:13:14.296Z,19.58
2022-08-01T05:15:42.636Z,19.58
2022-08-01T05:18:11.030Z,19.58
2022-08-01T05:20:39.546Z,19.60
2022-08-01T05:23:09.276Z,19.58
2022-08-01T05:25:57.636Z,19.59
2022-08-01T05:28:26.701Z,19.57
2022-08-01T05:30:55.752Z,19.57
2022-08-01T05:33:24.307Z,19.57
2022-08-01T05:35:52.655Z,19.55
2022-08-01T05:38:21.073Z,19.56
2022-08-01T05:40:50.822Z,19.55
2022-08-01T05:43:19.178Z,19.53
2022-08-01T05:45:48.159Z,19.54
2022-08-01T05:48:16.495Z,19.55
2022-08-01T05:50:44.919Z,19.55
2022-08-01T05:53:13.275Z,19.56
2022-08-01T05:55:43.738Z,19.55
2022-08-01T05:58:13.489Z,19.55
2022-08-01T06:00:42.035Z,19.55
2022-08-01T06:03:12.236Z,19.54
2022-08-01T06:05:40.655Z,19.55
2022-08-01T06:08:08.995Z,19.55
2022-08-01T06:10:37.753Z,19.55
2022-08-01T06:13:06.174Z,19.55
2022-08-01T06:15:36.018Z,19.55
2022-08-01T06:18:04.760Z,19.56
2022-08-01T06:20:33.177Z,19.55
2022-08-01T06:23:05.807Z,19.56
2022-08-01T06:25:50.216Z,19.57
2022-08-01T06:28:20.591Z,19.60
2022-08-01T06:30:50.368Z,19.62
2022-08-01T06:33:18.751Z,19.66
2022-08-01T06:35:47.118Z,19.68
2022-08-01T06:38:15.474Z,19.71
2022-08-01T06:40:43.826Z,19.72
2022-08-01T06:43:12.650Z,19.75
2022-08-01T06:45:41.671Z,19.76
2022-08-01T06:48:11.464Z,19.76
2022-08-01T06:50:39.791Z,19.78
2022-08-01T06:53:08.121Z,19.80
2022-08-01T06:55:36.524Z,19.82
2022-08-01T06:58:04.927Z,19.85
2022-08-01T07:00:33.358Z,19.86
2022-08-01T07:03:01.754Z,19.88
2022-08-01T07:05:32.051Z,19.89
2022-08-01T07:08:00.766Z,19.91
2022-08-01T07:10:29.195Z,19.94
2022-08-01T07:12:57.545Z,19.94
2022-08-01T07:15:27.594Z,19.96
2022-08-01T07:17:56.120Z,19.98
2022-08-01T07:20:24.556Z,20.00
2022-08-01T07:22:54.590Z,20.02
2022-08-01T07:25:25.384Z,20.05
2022-08-01T07:27:53.793Z,20.07
2022-08-01T07:30:22.238Z,20.08
2022-08-01T07:32:50.670Z,20.09
2022-08-01T07:35:19.238Z,20.10
2022-08-01T07:37:49.053Z,20.12
2022-08-01T07:40:20.001Z,20.14
2022-08-01T07:42:49.003Z,20.19
2022-08-01T07:45:17.538Z,20.22
2022-08-01T07:47:46.486Z,20.29
2022-08-01T07:50:14.952Z,20.34
2022-08-01T07:52:43.928Z,20.38
2022-08-01T07:55:16.384Z,20.41
2022-08-01T07:57:46.754Z,20.46
2022-08-01T08:00:15.876Z,20.48
2022-08-01T08:02:45.048Z,20.54
2022-08-01T08:05:13.815Z,20.57
2022-08-01T08:07:42.215Z,20.63
2022-08-01T08:10:11.437Z,20.70
2022-08-01T08:12:39.873Z,20.77
2022-08-01T08:15:10.800Z,20.81
2022-08-01T08:17:39.399Z,20.86
2022-08-01T08:20:09.763Z,20.89
2022-08-01T08:22:39.173Z,20.94
2022-08-01T08:25:08.816Z,20.99
2022-08-01T08:27:37.806Z,21.01
2022-08-01T08:30:08.665Z,21.04
2022-08-01T08:32:38.819Z,21.07
2022-08-01T08:35:08.422Z,21.12
2022-08-01T08:37:47.432Z,21.16
2022-08-01T08:40:17.887Z,21.19
2022-08-01T08:42:47.356Z,21.20
2022-08-01T08:45:15.758Z,21.22
2022-08-01T08:47:47.947Z,21.24
2022-08-01T08:50:16.854Z,21.25
2022-08-01T08:52:46.673Z,21.27
2022-08-01T08:55:17.437Z,21.29
2022-08-01T08:57:49.406Z,21.29
2022-08-01T09:00:18.129Z,21.29
2022-08-01T09:02:50.187Z,21.30
2022-08-01T09:05:26.389Z,21.29
2022-08-01T09:08:09.315Z,21.28
2022-08-01T09:10:38.203Z,21.27
2022-08-01T09:13:12.641Z,21.29
2022-08-01T09:15:43.545Z,21.35
2022-08-01T09:21:17.346Z,21.46
2022-08-01T09:23:53.340Z,21.51
2022-08-01T09:26:29.873Z,21.53
2022-08-01T09:29:00.461Z,21.56
2022-08-01T09:31:38.488Z,21.57
2022-08-01T09:34:08.471Z,21.58
2022-08-01T09:36:52.298Z,21.61
2022-08-01T09:39:25.562Z,21.62
2022-08-01T09:41:55.099Z,21.66
2022-08-01T09:44:42.205Z,21.67
2022-08-01T09:47:13.437Z,21.68
2022-08-01T09:49:51.815Z,21.70
2022-08-01T09:52:25.926Z,21.73
2022-08-01T09:54:58.974Z,21.77
2022-08-01T09:57:28.917Z,21.81
2022-08-01T10:00:00.791Z,21.85
2022-08-01T10:02:32.951Z,21.89
2022-08-01T10:05:08.321Z,21.94
2022-08-01T10:07:58.979Z,22.01
2022-08-01T10:10:29.057Z,22.07
2022-08-01T10:13:01.277Z,22.16
2022-08-01T10:15:37.322Z,22.25
2022-08-01T10:18:16.674Z,22.31
2022-08-01T10:20:56.491Z,22.33
2022-08-01T10:23:40.886Z,22.40
2022-08-01T10:26:12.345Z,22.49
2022-08-01T10:28:42.832Z,22.60
2022-08-01T10:31:14.787Z,22.69
2022-08-01T10:33:50.630Z,22.79
2022-08-01T10:36:27.182Z,22.87
2022-08-01T10:38:59.121Z,22.92
2022-08-01T10:41:30.312Z,22.97
2022-08-01T10:43:59.505Z,23.00
2022-08-01T10:46:28.295Z,23.04
2022-08-01T10:49:03.552Z,23.09
2022-08-01T10:51:52.199Z,23.13
2022-08-01T10:54:26.981Z,23.19
2022-08-01T10:56:57.344Z,23.26
2022-08-01T10:59:51.167Z,23.36
2022-08-01T11:02:32.338Z,23.42
2022-08-01T11:05:06.657Z,23.47
2022-08-01T11:07:48.378Z,23.54
2022-08-01T11:10:26.529Z,23.61
2022-08-01T11:12:54.962Z,23.68
2022-08-01T11:15:29.594Z,23.72
2022-08-01T11:18:02.858Z,23.76
2022-08-01T11:20:41.613Z,23.82
2022-08-01T11:23:23.404Z,23.87
2022-08-01T11:26:13.329Z,23.94
2022-08-01T11:29:04.696Z,24.02
2022-08-01T11:31:38.369Z,24.10
2022-08-01T11:34:07.268Z,24.16
2022-08-01T11:36:58.470Z,24.22
2022-08-01T11:39:24.458Z,24.29
2022-08-01T11:41:55.501Z,24.34
2022-08-01T11:44:28.333Z,24.40
2022-08-01T11:47:08.768Z,24.48
2022-08-01T11:49:51.607Z,24.56
2022-08-01T11:52:25.720Z,24.62
2022-08-01T11:54:56.835Z,24.65
2022-08-01T11:57:34.441Z,24.62
2022-08-01T12:00:09.162Z,24.59
2022-08-01T12:02:45.734Z,24.55
2022-08-01T12:05:17.356Z,24.59
2022-08-01T12:07:47.349Z,24.63
2022-08-01T12:10:17.386Z,24.69
2022-08-01T12:12:49.387Z,24.78
2022-08-01T12:15:19.095Z,24.86
2022-08-01T12:17:58.631Z,24.93
2022-08-01T12:20:33.793Z,24.98
2022-08-01T12:23:06.105Z,25.00
2022-08-01T12:25:34.570Z,25.05
2022-08-01T12:28:06.123Z,25.10
2022-08-01T12:30:42.488Z,25.09
2022-08-01T12:33:13.096Z,25.14
2022-08-01T12:35:43.652Z,25.19
2022-08-01T12:38:17.140Z,25.21
2022-08-01T12:40:51.482Z,25.18
2022-08-01T12:43:29.593Z,25.14
2022-08-01T12:46:00.362Z,25.15
2022-08-01T12:48:32.973Z,25.18
2022-08-01T12:51:03.223Z,25.24
2022-08-01T12:53:40.511Z,25.23
2022-08-01T12:56:11.994Z,25.22
2022-08-01T12:58:41.986Z,25.29
2022-08-01T13:01:12.424Z,25.36
2022-08-01T13:03:41.758Z,25.52
2022-08-01T13:06:15.698Z,25.70
2022-08-01T13:08:45.467Z,25.83
2022-08-01T13:11:18.995Z,25.86
2022-08-01T13:13:50.664Z,25.81
2022-08-01T13:16:30.658Z,25.76
2022-08-01T13:19:07.718Z,25.76
2022-08-01T13:21:52.543Z,25.77
2022-08-01T13:24:27.869Z,25.80
2022-08-01T13:26:59.714Z,25.81
2022-08-01T13:29:34.283Z,25.78
2022-08-01T13:32:13.594Z,25.72
2022-08-01T13:35:03.284Z,25.71
2022-08-01T13:37:32.358Z,25.70
2022-08-01T13:40:00.896Z,25.68
2022-08-01T13:42:30.422Z,25.63
2022-08-01T13:45:00.154Z,25.57
2022-08-01T13:47:32.093Z,25.51
2022-08-01T13:50:03.751Z,25.48
2022-08-01T13:52:33.238Z,25.49
2022-08-01T13:55:02.297Z,25.48
2022-08-01T13:57:36.613Z,25.50
2022-08-01T14:00:10.189Z,25.53
2022-08-01T14:02:41.279Z,25.53
2022-08-01T14:05:10.002Z,25.52
2022-08-01T14:07:38.434Z,25.50
2022-08-01T14:10:19.544Z,25.53
2022-08-01T14:12:49.497Z,25.57
2022-08-01T14:15:38.631Z,25.57
2022-08-01T14:18:09.319Z,25.59
2022-08-01T14:20:39.081Z,25.55
2022-08-01T14:23:08.858Z,25.54
2022-08-01T14:26:01.668Z,25.53
2022-08-01T14:28:28.410Z,25.59
2022-08-01T14:30:58.517Z,25.65
2022-08-01T14:33:27.200Z,25.68
2022-08-01T14:36:06.114Z,25.71
2022-08-01T14:38:46.304Z,25.71
2022-08-01T14:41:15.571Z,25.72
2022-08-01T14:43:43.997Z,25.75
2022-08-01T14:46:14.127Z,25.77
2022-08-01T14:48:42.531Z,25.77
2022-08-01T14:51:11.120Z,25.78
2022-08-01T14:53:40.363Z,25.77
2022-08-01T14:56:12.587Z,25.74
2022-08-01T14:58:40.997Z,25.73
2022-08-01T15:01:09.447Z,25.74
2022-08-01T15:03:39.228Z,25.73
2022-08-01T15:06:10.484Z,25.71
2022-08-01T15:08:39.218Z,25.66
2022-08-01T15:11:09.532Z,25.60
2022-08-01T15:13:42.792Z,25.54
2022-08-01T15:16:12.119Z,25.50
2022-08-01T15:18:42.967Z,25.46
2022-08-01T15:21:17.223Z,25.42
2022-08-01T15:23:53.546Z,25.32
2022-08-01T15:26:21.973Z,25.27
2022-08-01T15:28:50.400Z,25.23
2022-08-01T15:31:19.301Z,25.20
2022-08-01T15:33:49.067Z,25.21
2022-08-01T15:36:25.793Z,25.20
2022-08-01T15:38:54.999Z,25.16
2022-08-01T15:41:23.377Z,25.15
2022-08-01T15:43:55.872Z,25.12
2022-08-01T15:46:24.777Z,25.07
2022-08-01T15:48:54.629Z,25.02
2022-08-01T15:51:23.576Z,24.96
2022-08-01T15:53:51.961Z,24.90
2022-08-01T15:56:20.328Z,24.88
2022-08-01T15:58:51.236Z,24.88
2022-08-01T16:01:20.318Z,24.95
2022-08-01T16:03:48.790Z,25.01
2022-08-01T16:06:18.546Z,25.09
2022-08-01T16:08:46.901Z,25.11
2022-08-01T16:11:15.536Z,25.11
2022-08-01T16:13:43.929Z,25.11
2022-08-01T16:16:16.729Z,25.09
2022-08-01T16:18:45.153Z,25.04
2022-08-01T16:21:24.928Z,24.99
2022-08-01T16:23:53.321Z,24.93
2022-08-01T16:26:27.942Z,24.86
2022-08-01T16:28:57.945Z,24.86
2022-08-01T16:31:36.376Z,24.88
2022-08-01T16:34:15.357Z,24.93
2022-08-01T16:36:45.221Z,24.98
2022-08-01T16:39:13.596Z,25.03
2022-08-01T16:41:41.998Z,25.14
2022-08-01T16:44:10.392Z,25.25
2022-08-01T16:46:38.786Z,25.32
2022-08-01T16:49:07.569Z,25.33
2022-08-01T16:51:39.564Z,25.30
2022-08-01T16:54:25.414Z,25.24
2022-08-01T16:57:08.357Z,25.18
2022-08-01T16:59:41.777Z,25.15
2022-08-01T17:02:11.731Z,25.13
2022-08-01T17:04:43.003Z,25.10
2022-08-01T17:07:11.468Z,25.08
2022-08-01T17:09:43.570Z,25.06
2022-08-01T17:12:13.224Z,25.04
2022-08-01T17:14:50.522Z,25.02
2022-08-01T17:17:19.097Z,25.00
2022-08-01T17:19:47.766Z,25.01
2022-08-01T17:22:16.276Z,25.08
2022-08-01T17:24:46.154Z,25.18
2022-08-01T17:27:14.776Z,25.27
2022-08-01T17:29:44.494Z,25.30
2022-08-01T17:32:14.195Z,25.29
2022-08-01T17:34:42.970Z,25.26
2022-08-01T17:37:11.681Z,25.20
2022-08-01T17:39:41.253Z,25.14
2022-08-01T17:42:12.368Z,25.12
2022-08-01T17:44:41.699Z,25.08
2022-08-01T17:47:24.190Z,24.95
2022-08-01T17:50:04.289Z,24.85
2022-08-01T17:52:33.394Z,24.77
2022-08-01T17:55:02.725Z,24.67
2022-08-01T17:57:32.733Z,24.58
2022-08-01T18:00:01.136Z,24.50
2022-08-01T18:02:29.597Z,24.43
2022-08-01T18:04:59.133Z,24.36
2022-08-01T18:08:00.284Z,24.25
2022-08-01T18:10:16.886Z,24.16
2022-08-01T18:12:46.757Z,24.10
2022-08-01T18:15:15.411Z,24.03
2022-08-01T18:17:44.349Z,23.96
2022-08-01T18:20:13.386Z,23.90
2022-08-01T18:22:42.290Z,23.83
2022-08-01T18:25:11.302Z,23.79
2022-08-01T18:28:22.406Z,23.74
2022-08-01T18:30:32.127Z,23.68
2022-08-01T18:33:00.858Z,23.63
2022-08-01T18:35:51.642Z,23.58
2022-08-01T18:38:17.763Z,23.51
2022-08-01T18:40:48.501Z,23.44
2022-08-01T18:43:16.990Z,23.38
2022-08-01T18:45:46.707Z,23.32
2022-08-01T18:48:15.079Z,23.26
2022-08-01T18:50:43.460Z,23.20
2022-08-01T18:53:11.790Z,23.15
2022-08-01T18:55:40.261Z,23.09
2022-08-01T18:58:08.720Z,23.03
2022-08-01T19:00:37.107Z,22.97
2022-08-01T19:03:07.748Z,22.90
2022-08-01T19:05:37.003Z,22.82
2022-08-01T19:08:07.930Z,22.76
2022-08-01T19:10:37.184Z,22.71
2022-08-01T19:13:05.727Z,22.62
2022-08-01T19:15:34.578Z,22.54
2022-08-01T19:18:03.264Z,22.49
2022-08-01T19:20:33.260Z,22.43
2022-08-01T19:23:21.611Z,22.35
2022-08-01T19:25:55.394Z,22.25
2022-08-01T19:28:26.384Z,22.18
2022-08-01T19:30:56.363Z,22.12
2022-08-01T19:33:24.731Z,22.03
2022-08-01T19:35:54.499Z,21.93
2022-08-01T19:38:23.407Z,21.85
2022-08-01T19:40:51.914Z,21.79
2022-08-01T19:43:22.391Z,21.73
2022-08-01T19:45:51.822Z,21.67
2022-08-01T19:48:20.280Z,21.59
2022-08-01T19:50:50.872Z,21.53
2022-08-01T19:53:24.992Z,21.47
2022-08-01T19:55:54.202Z,21.41
2022-08-01T19:58:27.351Z,21.33
2022-08-01T20:00:56.905Z,21.27
2022-08-01T20:03:27.964Z,21.21
2022-08-01T20:05:56.757Z,21.15
2022-08-01T20:08:27.290Z,21.09
2022-08-01T20:10:56.215Z,21.03
2022-08-01T20:13:25.003Z,20.97
2022-08-01T20:15:54.209Z,20.89
2022-08-01T20:18:23.165Z,20.85
2022-08-01T20:20:53.161Z,20.79
2022-08-01T20:23:23.540Z,20.73
2022-08-01T20:25:58.345Z,20.67
2022-08-01T20:28:29.094Z,20.61
2022-08-01T20:31:05.035Z,20.55
2022-08-01T20:33:36.041Z,20.49
2022-08-01T20:36:12.285Z,20.43
2022-08-01T20:38:54.554Z,20.37
2022-08-01T20:41:26.064Z,20.31
2022-08-01T20:43:56.664Z,20.26
2022-08-01T20:46:26.903Z,20.20
2022-08-01T20:48:57.584Z,20.14
2022-08-01T20:51:26.602Z,20.10
2022-08-01T20:53:56.399Z,20.04
2022-08-01T20:56:37.790Z,19.97
2022-08-01T20:59:10.309Z,19.91
2022-08-01T21:01:47.740Z,19.87
2022-08-01T21:04:28.519Z,19.82
2022-08-01T21:07:03.785Z,19.76
2022-08-01T21:09:39.477Z,19.71
2022-08-01T21:12:20.962Z,19.65
2022-08-01T21:14:52.957Z,19.58
2022-08-01T21:17:33.806Z,19.53
2022-08-01T21:20:07.534Z,19.48
2022-08-01T21:22:39.094Z,19.44
2022-08-01T21:25:10.950Z,19.38
2022-08-01T21:27:41.362Z,19.35
2022-08-01T21:30:10.775Z,19.30
2022-08-01T21:32:43.559Z,19.27
2022-08-01T21:35:16.607Z,19.23
2022-08-01T21:37:52.507Z,19.17
2022-08-01T21:40:22.822Z,19.11
2022-08-01T21:42:54.426Z,19.07
2022-08-01T21:45:24.883Z,19.02
2022-08-01T21:47:54.230Z,18.96
2022-08-01T21:50:23.287Z,18.92
2022-08-01T21:53:04.972Z,18.87
2022-08-01T21:55:38.527Z,18.83
2022-08-01T21:58:33.358Z,18.77
2022-08-01T22:01:08.090Z,18.72
2022-08-01T22:03:42.530Z,18.65
2022-08-01T22:06:10.743Z,18.61
2022-08-01T22:08:49.616Z,18.56
2022-08-01T22:11:22.155Z,18.51
2022-08-01T22:13:54.950Z,18.48
2022-08-01T22:16:24.401Z,18.44
2022-08-01T22:18:53.531Z,18.42
2022-08-01T22:21:22.608Z,18.39
2022-08-01T22:24:16.615Z,18.33
2022-08-01T22:26:47.302Z,18.30
2022-08-01T22:29:18.004Z,18.27
2022-08-01T22:31:48.268Z,18.23
2022-08-01T22:34:19.623Z,18.18
2022-08-01T22:36:52.003Z,18.15
2022-08-01T22:39:21.394Z,18.11
2022-08-01T22:42:01.280Z,18.08
2022-08-01T22:44:42.840Z,18.04
2022-08-01T22:47:21.099Z,18.00
2022-08-01T22:49:58.190Z,17.94
2022-08-01T22:52:30.039Z,17.90
2022-08-01T22:55:03.986Z,17.84
2022-08-01T22:57:47.340Z,17.81
2022-08-01T23:00:20.299Z,17.78
2022-08-01T23:02:52.850Z,17.76
2022-08-01T23:05:23.438Z,17.72
2022-08-01T23:07:54.222Z,17.67
2022-08-01T23:10:24.790Z,17.64
2022-08-01T23:12:54.859Z,17.59
2022-08-01T23:15:25.663Z,17.55
2022-08-01T23:17:55.682Z,17.54
2022-08-01T23:20:25.059Z,17.52
2022-08-01T23:22:54.613Z,17.48
2022-08-01T23:25:24.422Z,17.45
2022-08-01T23:28:04.937Z,17.43
2022-08-01T23:30:36.323Z,17.40
2022-08-01T23:33:05.117Z,17.37
2022-08-01T23:35:39.013Z,17.34
2022-08-01T23:38:08.294Z,17.32
2022-08-01T23:40:39.550Z,17.28
2022-08-01T23:43:16.661Z,17.25
2022-08-01T23:46:03.746Z,17.23
2022-08-01T23:48:38.097Z,17.19
2022-08-01T23:51:07.652Z,17.16
2022-08-01T23:53:38.584Z,17.14
2022-08-01T23:56:07.408Z,17.11
2022-08-01T23:58:35.894Z,17.08
